Time;durP1;ratioP1;P1;durP2;ratioP2;P2;SDS_P1;SDS_P2;PMS_P1;PMS_P2;Temp;Humidity;BMP_temperature;BMP_pressure;BME280_temperature;BME280_humidity;BME280_pressure;Samples;Min_cycle;Max_cycle;Signal;HPM_P1;HPM_P2
2021/08/23 00:00:12;;;;;;;8.10;5.88;;;;;;;;;;10275535;28;20045;-51
2021/08/23 00:05:12;;;;;;;6.15;5.32;;;;;;;;;;10275556;28;20037;-55
2021/08/23 00:10:11;;;;;;;5.80;5.07;;;;;;;;;;10274923;28;20060;-54
2021/08/23 00:15:10;;;;;;;6.50;5.82;;;;;;;;;;10276241;28;20076;-51
2021/08/23 00:20:10;;;;;;;9.20;5.78;;;;;;;;;;10273754;28;20065;-56
2021/08/23 00:25:10;;;;;;;7.13;5.60;;;;;;;;;;10276230;28;20041;-57
2021/08/23 00:30:09;;;;;;;7.55;5.55;;;;;;;;;;10276146;28;20463;-56
2021/08/23 00:35:08;;;;;;;9.88;5.88;;;;;;;;;;10276026;28;20362;-56
2021/08/23 00:40:07;;;;;;;12.48;5.93;;;;;;;;;;10275797;28;20079;-54
2021/08/23 00:45:08;;;;;;;9.35;6.40;;;;;;;;;;10275818;28;20041;-56
2021/08/23 00:50:06;;;;;;;6.57;5.72;;;;;;;;;;10274997;28;20057;-56
2021/08/23 00:55:05;;;;;;;6.50;5.90;;;;;;;;;;10275594;28;20076;-56
2021/08/23 01:00:05;;;;;;;6.25;5.65;;;;;;;;;;10275430;28;20052;-56
2021/08/23 01:05:09;;;;;;;8.05;6.30;;;;;;;;;;10275351;28;20049;-56
2021/08/23 01:10:09;;;;;;;6.23;5.70;;;;;;;;;;10275427;28;20052;-56
2021/08/23 01:15:08;;;;;;;7.28;5.07;;;;;;;;;;10274555;28;20056;-57
2021/08/23 01:20:11;;;;;;;6.07;5.45;;;;;;;;;;10277888;28;20049;-56
2021/08/23 01:25:12;;;;;;;6.22;5.63;;;;;;;;;;10281260;28;20048;-56
2021/08/23 01:30:11;;;;;;;6.60;5.88;;;;;;;;;;10281079;28;20041;-56
2021/08/23 01:35:11;;;;;;;7.15;5.95;;;;;;;;;;10280598;28;20122;-55
2021/08/23 01:40:09;;;;;;;6.88;6.05;;;;;;;;;;10281071;28;20041;-56
2021/08/23 01:45:08;;;;;;;7.10;5.60;;;;;;;;;;10280365;28;20044;-57
2021/08/23 01:50:07;;;;;;;6.38;5.78;;;;;;;;;;10280262;28;20111;-56
2021/08/23 01:55:07;;;;;;;7.60;5.78;;;;;;;;;;10281111;28;20080;-54
2021/08/23 02:00:06;;;;;;;6.70;5.60;;;;;;;;;;10281040;28;20033;-57
2021/08/23 02:05:05;;;;;;;7.97;6.13;;;;;;;;;;10280715;28;20486;-58
2021/08/23 02:10:04;;;;;;;6.57;5.72;;;;;;;;;;10279669;28;20052;-56
2021/08/23 02:15:04;;;;;;;6.38;5.75;;;;;;;;;;10278448;28;20095;-56
2021/08/23 02:20:03;;;;;;;6.65;5.85;;;;;;;;;;10280287;28;20033;-58
2021/08/23 02:25:01;;;;;;;6.20;5.47;;;;;;;;;;10279999;28;20072;-56
2021/08/23 02:29:59;;;;;;;7.45;5.38;;;;;;;;;;10279562;28;20095;-57
2021/08/23 02:34:59;;;;;;;6.40;4.82;;;;;;;;;;10279564;28;20072;-57
2021/08/23 02:39:57;;;;;;;5.38;4.88;;;;;;;;;;10279387;28;20049;-56
2021/08/23 02:44:56;;;;;;;6.57;5.50;;;;;;;;;;10279351;28;20084;-56
2021/08/23 02:49:54;;;;;;;11.07;5.10;;;;;;;;;;10278416;28;20069;-56
2021/08/23 02:54:54;;;;;;;6.43;5.10;;;;;;;;;;10278890;28;20084;-55
2021/08/23 02:59:52;;;;;;;5.72;5.13;;;;;;;;;;10278645;28;20045;-57
2021/08/23 03:04:50;;;;;;;7.82;5.72;;;;;;;;;;10305383;28;20048;-57
2021/08/23 03:09:48;;;;;;;9.15;6.82;;;;;;;;;;10291149;28;20060;-57
2021/08/23 03:14:48;;;;;;;10.23;7.45;;;;;;;;;;10290385;28;20084;-56
2021/08/23 03:19:46;;;;;;;8.50;7.03;;;;;;;;;;10294185;28;20076;-51
2021/08/23 03:24:45;;;;;;;10.63;6.93;;;;;;;;;;10288305;28;20068;-56
2021/08/23 03:29:45;;;;;;;7.20;6.45;;;;;;;;;;10316123;28;20060;-56
2021/08/23 03:34:45;;;;;;;20.60;9.45;;;;;;;;;;10283461;28;20081;-57
2021/08/23 03:39:43;;;;;;;12.07;7.07;;;;;;;;;;10277119;28;20116;-57
2021/08/23 03:44:41;;;;;;;8.30;7.50;;;;;;;;;;10275470;28;20045;-58
2021/08/23 03:49:40;;;;;;;11.48;6.85;;;;;;;;;;10274251;28;20084;-54
2021/08/23 03:54:40;;;;;;;12.73;7.07;;;;;;;;;;10276657;28;20080;-54
2021/08/23 03:59:39;;;;;;;19.50;8.18;;;;;;;;;;10276624;28;20037;-56
2021/08/23 04:04:37;;;;;;;12.50;8.05;;;;;;;;;;10276530;28;20509;-56
2021/08/23 04:09:35;;;;;;;13.23;8.23;;;;;;;;;;10276348;28;20060;-57
2021/08/23 04:14:35;;;;;;;11.93;8.65;;;;;;;;;;10276280;28;20044;-57
2021/08/23 04:19:33;;;;;;;10.20;8.45;;;;;;;;;;10276130;28;20505;-56
2021/08/23 04:24:32;;;;;;;13.40;8.50;;;;;;;;;;10276266;28;20044;-57
2021/08/23 04:29:30;;;;;;;14.77;10.25;;;;;;;;;;10275990;28;20513;-55
2021/08/23 04:34:30;;;;;;;14.57;9.80;;;;;;;;;;10275029;28;20048;-57
2021/08/23 04:39:28;;;;;;;11.98;9.10;;;;;;;;;;10275546;28;20111;-57
2021/08/23 04:44:26;;;;;;;16.10;11.45;;;;;;;;;;10273415;28;20461;-57
2021/08/23 04:49:25;;;;;;;16.67;9.45;;;;;;;;;;10271752;28;20103;-57
2021/08/23 04:54:24;;;;;;;11.02;8.30;;;;;;;;;;10275953;28;20135;-58
2021/08/23 04:59:23;;;;;;;16.85;11.60;;;;;;;;;;10281904;28;20068;-58
2021/08/23 05:04:21;;;;;;;19.83;11.07;;;;;;;;;;10282915;28;20068;-56
2021/08/23 05:09:20;;;;;;;14.68;10.55;;;;;;;;;;10282654;28;20044;-56
2021/08/23 05:14:20;;;;;;;9.23;8.32;;;;;;;;;;10282530;28;20073;-57
2021/08/23 05:19:18;;;;;;;18.42;9.10;;;;;;;;;;10282256;28;20525;-56
2021/08/23 05:24:16;;;;;;;10.98;9.18;;;;;;;;;;10282121;28;20447;-56
2021/08/23 05:29:15;;;;;;;14.30;10.43;;;;;;;;;;10282053;28;20040;-57
2021/08/23 05:34:14;;;;;;;11.68;8.68;;;;;;;;;;10281731;28;20081;-57
2021/08/23 05:39:14;;;;;;;16.55;9.30;;;;;;;;;;10281152;28;20494;-57
2021/08/23 05:44:12;;;;;;;10.15;7.82;;;;;;;;;;10281114;28;20053;-57
2021/08/23 05:49:10;;;;;;;8.55;7.75;;;;;;;;;;10280562;28;20057;-57
2021/08/23 05:54:10;;;;;;;11.18;8.60;;;;;;;;;;10280973;28;20052;-57
2021/08/23 05:59:08;;;;;;;10.88;9.20;;;;;;;;;;10280765;28;20072;-58
2021/08/23 06:04:07;;;;;;;10.38;8.25;;;;;;;;;;10280217;28;20053;-57
2021/08/23 06:09:05;;;;;;;8.57;7.07;;;;;;;;;;10280236;28;20045;-56
2021/08/23 06:14:05;;;;;;;8.90;7.03;;;;;;;;;;10280163;28;20041;-58
2021/08/23 06:19:03;;;;;;;8.57;6.82;;;;;;;;;;10279987;28;20521;-58
2021/08/23 06:24:02;;;;;;;10.13;8.38;;;;;;;;;;10279632;28;20040;-57
2021/08/23 06:29:00;;;;;;;9.70;7.63;;;;;;;;;;10279535;28;20072;-56
2021/08/23 06:34:00;;;;;;;9.38;7.72;;;;;;;;;;10279421;28;20045;-56
2021/08/23 06:38:59;;;;;;;8.57;7.72;;;;;;;;;;10279080;28;20080;-56
2021/08/23 06:43:57;;;;;;;8.23;7.43;;;;;;;;;;10278914;28;20064;-57
2021/08/23 06:48:55;;;;;;;11.15;7.15;;;;;;;;;;10278210;28;20088;-57
2021/08/23 06:53:55;;;;;;;10.77;7.40;;;;;;;;;;10278590;28;20045;-52
2021/08/23 06:58:53;;;;;;;36.40;31.75;;;;;;;;;;10276570;28;20053;-56
2021/08/23 07:03:52;;;;;;;11.30;9.02;;;;;;;;;;10277399;28;20045;-55
2021/08/23 07:08:50;;;;;;;12.88;7.43;;;;;;;;;;10277806;28;20410;-56
2021/08/23 07:13:50;;;;;;;12.05;7.88;;;;;;;;;;10277879;28;20056;-57
2021/08/23 07:18:48;;;;;;;7.65;6.40;;;;;;;;;;10276692;28;20087;-57
2021/08/23 07:23:46;;;;;;;11.57;7.38;;;;;;;;;;10277562;28;20040;-58
2021/08/23 07:28:45;;;;;;;9.68;6.70;;;;;;;;;;10277384;28;20474;-57
2021/08/23 07:33:45;;;;;;;10.15;6.18;;;;;;;;;;10277188;28;20513;-53
2021/08/23 07:38:43;;;;;;;10.40;6.43;;;;;;;;;;10276982;28;20100;-57
2021/08/23 07:43:41;;;;;;;10.63;6.32;;;;;;;;;;10276955;28;20088;-56
2021/08/23 07:48:40;;;;;;;7.05;6.35;;;;;;;;;;10276129;28;20064;-56
2021/08/23 07:53:39;;;;;;;6.22;5.63;;;;;;;;;;10276537;28;20083;-57
2021/08/23 07:58:38;;;;;;;10.85;5.63;;;;;;;;;;10276511;28;20080;-58
2021/08/23 08:03:37;;;;;;;6.13;5.60;;;;;;;;;;10276481;28;20545;-56
2021/08/23 08:08:36;;;;;;;7.88;5.38;;;;;;;;;;10276403;28;20463;-56
2021/08/23 08:13:35;;;;;;;12.15;6.05;;;;;;;;;;10275418;28;20068;-56
2021/08/23 08:18:34;;;;;;;10.90;6.72;;;;;;;;;;10275978;28;20107;-55
2021/08/23 08:23:32;;;;;;;6.70;6.07;;;;;;;;;;10275927;28;20072;-55
2021/08/23 08:28:33;;;;;;;6.20;4.55;;;;;;;;;;10277374;28;20091;-55
2021/08/23 08:33:32;;;;;;;5.68;5.00;;;;;;;;;;10284090;28;20051;-57
2021/08/23 08:38:31;;;;;;;5.43;3.72;;;;;;;;;;10283551;28;20076;-53
2021/08/23 08:43:30;;;;;;;8.23;7.50;;;;;;;;;;10282851;28;20072;-55
2021/08/23 08:48:30;;;;;;;5.45;4.78;;;;;;;;;;10282838;28;20064;-55
2021/08/23 08:53:29;;;;;;;6.90;4.25;;;;;;;;;;10283046;28;20064;-56
2021/08/23 08:58:28;;;;;;;11.93;4.10;;;;;;;;;;10282954;28;20084;-56
2021/08/23 09:03:27;;;;;;;8.32;4.65;;;;;;;;;;10282619;28;20079;-56
2021/08/23 09:08:28;;;;;;;12.52;4.28;;;;;;;;;;10282823;28;20045;-56
2021/08/23 09:13:28;;;;;;;9.63;3.75;;;;;;;;;;10282622;28;20061;-52
2021/08/23 09:18:28;;;;;;;4.07;3.65;;;;;;;;;;10282324;28;20414;-56
2021/08/23 09:23:34;;;;;;;5.75;3.20;;;;;;;;;;10282166;28;20049;-57
2021/08/23 09:28:33;;;;;;;3.53;3.22;;;;;;;;;;10282224;28;20187;-57
2021/08/23 09:33:40;;;;;;;5.05;3.95;;;;;;;;;;10281799;28;20049;-56
2021/08/23 09:38:40;;;;;;;4.03;3.50;;;;;;;;;;10281353;28;20081;-57
2021/08/23 09:43:39;;;;;;;3.40;3.10;;;;;;;;;;10280649;28;20479;-57
2021/08/23 09:48:39;;;;;;;3.53;3.22;;;;;;;;;;10280608;28;20453;-56
2021/08/23 09:53:37;;;;;;;4.97;4.03;;;;;;;;;;10280086;28;20056;-57
2021/08/23 09:58:35;;;;;;;5.47;4.03;;;;;;;;;;10280882;28;20044;-56
2021/08/23 10:03:36;;;;;;;11.00;3.88;;;;;;;;;;10280587;28;20041;-56
2021/08/23 10:08:44;;;;;;;3.97;3.58;;;;;;;;;;10279667;28;20049;-57
2021/08/23 10:13:43;;;;;;;4.13;3.55;;;;;;;;;;10280297;28;20049;-57
2021/08/23 10:18:43;;;;;;;7.25;3.38;;;;;;;;;;10280026;28;20076;-57
2021/08/23 10:23:41;;;;;;;4.40;3.63;;;;;;;;;;10279974;28;20494;-58
2021/08/23 10:28:40;;;;;;;3.45;3.15;;;;;;;;;;10278908;28;20414;-56
2021/08/23 10:33:40;;;;;;;7.07;3.50;;;;;;;;;;10279554;28;20049;-56
2021/08/23 10:38:40;;;;;;;3.42;3.13;;;;;;;;;;10279335;28;20283;-57
2021/08/23 10:43:45;;;;;;;3.30;2.72;;;;;;;;;;10279241;28;20041;-57
2021/08/23 10:48:47;;;;;;;4.78;3.40;;;;;;;;;;10279107;28;20088;-58
2021/08/23 10:53:47;;;;;;;3.60;3.08;;;;;;;;;;10278637;28;20049;-55
2021/08/23 10:58:46;;;;;;;3.95;3.55;;;;;;;;;;10278454;28;20163;-57
2021/08/23 11:03:45;;;;;;;5.38;2.88;;;;;;;;;;10278335;28;20084;-57
2021/08/23 11:08:45;;;;;;;5.28;3.22;;;;;;;;;;10278145;28;20044;-57
2021/08/23 11:13:57;;;;;;;4.00;3.40;;;;;;;;;;10278251;28;20045;-56
2021/08/23 11:18:56;;;;;;;3.50;3.00;;;;;;;;;;10277802;28;20075;-55
2021/08/23 11:23:54;;;;;;;3.80;3.40;;;;;;;;;;10277834;28;20053;-57
2021/08/23 11:28:52;;;;;;;3.38;3.08;;;;;;;;;;10277616;28;20045;-56
2021/08/23 11:33:52;;;;;;;3.35;3.05;;;;;;;;;;10277052;28;20048;-56
2021/08/23 11:38:50;;;;;;;4.95;3.80;;;;;;;;;;10276962;28;20073;-56
2021/08/23 11:43:51;;;;;;;7.93;3.33;;;;;;;;;;10277078;28;20071;-56
2021/08/23 11:48:55;;;;;;;3.72;3.33;;;;;;;;;;10276261;28;20077;-57
2021/08/23 11:54:01;;;;;;;4.00;3.25;;;;;;;;;;10275726;28;20037;-55
2021/08/23 11:58:59;;;;;;;5.43;3.28;;;;;;;;;;10274653;28;20048;-57
2021/08/23 12:03:59;;;;;;;5.35;3.50;;;;;;;;;;10275830;28;20072;-56
2021/08/23 12:09:00;;;;;;;4.50;3.40;;;;;;;;;;10276454;28;20513;-57
2021/08/23 12:13:58;;;;;;;3.70;3.15;;;;;;;;;;10276344;28;20041;-55
2021/08/23 12:19:06;;;;;;;6.22;2.75;;;;;;;;;;10276009;28;20080;-57
2021/08/23 12:24:06;;;;;;;5.00;3.47;;;;;;;;;;10276053;28;20049;-54
2021/08/23 12:29:06;;;;;;;7.43;3.45;;;;;;;;;;10276046;28;20499;-57
2021/08/23 12:34:11;;;;;;;3.67;3.22;;;;;;;;;;10275814;28;20049;-57
2021/08/23 12:39:11;;;;;;;6.97;3.85;;;;;;;;;;10275688;28;20084;-56
2021/08/23 12:44:09;;;;;;;3.60;3.10;;;;;;;;;;10275753;28;20312;-57
2021/08/23 12:49:08;;;;;;;4.35;3.65;;;;;;;;;;10274641;28;20049;-56
2021/08/23 12:54:06;;;;;;;6.47;3.35;;;;;;;;;;10275519;28;20076;-56
2021/08/23 12:59:06;;;;;;;3.35;2.88;;;;;;;;;;10274533;28;20080;-57
2021/08/23 13:04:05;;;;;;;4.85;3.10;;;;;;;;;;10275290;28;20041;-56
2021/08/23 13:09:05;;;;;;;5.13;2.95;;;;;;;;;;10275175;28;20457;-55
2021/08/23 13:14:04;;;;;;;4.72;3.30;;;;;;;;;;10276333;28;20045;-57
2021/08/23 13:19:03;;;;;;;4.47;3.10;;;;;;;;;;10281487;28;20089;-57
2021/08/23 13:24:01;;;;;;;5.30;3.55;;;;;;;;;;10282245;28;20049;-59
2021/08/23 13:29:00;;;;;;;3.60;3.22;;;;;;;;;;10281991;28;20410;-57
2021/08/23 13:33:58;;;;;;;3.58;3.28;;;;;;;;;;10280941;28;20418;-57
2021/08/23 13:38:58;;;;;;;5.93;3.47;;;;;;;;;;10280755;28;20084;-58
2021/08/23 13:43:56;;;;;;;4.60;4.18;;;;;;;;;;10281040;28;20072;-57
2021/08/23 13:48:54;;;;;;;4.18;3.40;;;;;;;;;;10280827;28;20059;-57
2021/08/23 13:53:53;;;;;;;4.45;3.90;;;;;;;;;;10281109;28;20052;-57
2021/08/23 13:58:56;;;;;;;3.67;3.38;;;;;;;;;;10280701;28;20095;-56
2021/08/23 14:03:54;;;;;;;5.03;3.65;;;;;;;;;;10280864;28;20037;-56
2021/08/23 14:08:53;;;;;;;9.25;3.92;;;;;;;;;;10280636;28;20238;-56
2021/08/23 14:13:52;;;;;;;6.88;4.70;;;;;;;;;;10280518;28;20049;-56
2021/08/23 14:18:51;;;;;;;7.60;3.95;;;;;;;;;;10280193;28;20072;-56
2021/08/23 14:23:51;;;;;;;5.47;4.13;;;;;;;;;;10280051;28;20037;-56
2021/08/23 14:28:49;;;;;;;5.85;3.50;;;;;;;;;;10289763;28;20080;-52
2021/08/23 14:33:49;;;;;;;4.32;3.35;;;;;;;;;;10301806;28;20063;-54
2021/08/23 14:38:47;;;;;;;5.50;3.22;;;;;;;;;;10294337;28;20044;-56
2021/08/23 14:43:46;;;;;;;4.65;4.25;;;;;;;;;;10297215;28;20509;-55
2021/08/23 14:48:44;;;;;;;3.88;3.58;;;;;;;;;;10297441;28;20052;-54
2021/08/23 14:53:44;;;;;;;7.85;4.40;;;;;;;;;;10297174;28;20080;-55
2021/08/23 14:58:43;;;;;;;6.35;3.50;;;;;;;;;;10296606;28;20100;-56
2021/08/23 15:03:41;;;;;;;8.32;3.95;;;;;;;;;;10298162;28;20068;-56
2021/08/23 15:08:39;;;;;;;4.47;3.92;;;;;;;;;;10297205;28;20043;-52
2021/08/23 15:13:39;;;;;;;4.00;3.60;;;;;;;;;;10297668;28;20077;-56
2021/08/23 15:18:40;;;;;;;5.03;4.22;;;;;;;;;;10295555;28;20041;-56
2021/08/23 15:23:38;;;;;;;4.60;3.75;;;;;;;;;;10283036;28;20072;-56
2021/08/23 15:28:39;;;;;;;6.13;3.47;;;;;;;;;;10286360;28;20076;-55
2021/08/23 15:33:37;;;;;;;4.25;3.65;;;;;;;;;;10292853;28;20076;-55
2021/08/23 15:38:35;;;;;;;3.83;3.30;;;;;;;;;;10299428;28;20129;-55
2021/08/23 15:43:34;;;;;;;4.43;3.67;;;;;;;;;;10283033;28;20083;-56
2021/08/23 15:48:35;;;;;;;4.88;4.47;;;;;;;;;;10282652;28;20108;-53
2021/08/23 15:53:33;;;;;;;6.72;3.58;;;;;;;;;;10284818;28;20514;-54
2021/08/23 15:58:32;;;;;;;6.95;4.20;;;;;;;;;;10287647;28;20064;-57
2021/08/23 16:03:30;;;;;;;9.48;5.15;;;;;;;;;;10298517;28;20091;-57
2021/08/23 16:08:30;;;;;;;7.72;5.13;;;;;;;;;;10291000;28;20068;-53
2021/08/23 16:13:30;;;;;;;6.47;5.65;;;;;;;;;;10286846;28;20465;-54
2021/08/23 16:18:28;;;;;;;5.13;3.95;;;;;;;;;;10282847;28;20090;-54
2021/08/23 16:23:28;;;;;;;12.93;5.13;;;;;;;;;;10275287;28;20080;-58
2021/08/23 16:28:27;;;;;;;10.68;6.50;;;;;;;;;;10271295;28;20076;-57
2021/08/23 16:33:26;;;;;;;6.95;4.43;;;;;;;;;;10271727;28;20187;-58
2021/08/23 16:38:24;;;;;;;14.13;5.53;;;;;;;;;;10273996;28;20411;-56
2021/08/23 16:43:22;;;;;;;6.22;5.15;;;;;;;;;;10275241;28;20492;-56
2021/08/23 16:48:22;;;;;;;8.20;7.40;;;;;;;;;;10274974;28;20049;-55
2021/08/23 16:53:20;;;;;;;6.82;5.13;;;;;;;;;;10283349;28;20045;-55
2021/08/23 16:58:20;;;;;;;10.88;6.68;;;;;;;;;;10282723;28;20044;-54
2021/08/23 17:03:18;;;;;;;7.78;4.13;;;;;;;;;;10283283;28;20501;-58
2021/08/23 17:08:19;;;;;;;6.75;4.25;;;;;;;;;;10282562;28;20297;-54
2021/08/23 17:13:18;;;;;;;7.60;4.35;;;;;;;;;;10282234;28;20429;-56
2021/08/23 17:18:16;;;;;;;4.32;3.92;;;;;;;;;;10282237;28;20052;-54
2021/08/23 17:23:14;;;;;;;6.35;5.32;;;;;;;;;;10282443;28;20088;-53
2021/08/23 17:28:14;;;;;;;5.90;5.15;;;;;;;;;;10281873;28;20078;-56
2021/08/23 17:33:12;;;;;;;5.57;5.00;;;;;;;;;;10281661;28;20065;-55
2021/08/23 17:38:11;;;;;;;9.65;5.13;;;;;;;;;;10280694;28;20045;-54
2021/08/23 17:43:09;;;;;;;10.40;4.10;;;;;;;;;;10281056;28;20073;-56
2021/08/23 17:48:09;;;;;;;6.28;4.18;;;;;;;;;;10280613;28;20057;-54
2021/08/23 17:53:07;;;;;;;5.82;4.45;;;;;;;;;;10280954;28;20085;-56
2021/08/23 17:58:08;;;;;;;7.82;4.28;;;;;;;;;;10280550;28;20410;-55
2021/08/23 18:03:07;;;;;;;3.63;3.25;;;;;;;;;;10278912;28;20549;-56
2021/08/23 18:08:07;;;;;;;4.30;3.90;;;;;;;;;;10280623;28;20041;-57
2021/08/23 18:13:05;;;;;;;8.50;4.10;;;;;;;;;;10280214;28;20044;-57
2021/08/23 18:18:03;;;;;;;6.72;3.90;;;;;;;;;;10280136;28;20079;-56
2021/08/23 18:23:02;;;;;;;5.72;3.75;;;;;;;;;;10279728;28;20385;-55
2021/08/23 18:28:01;;;;;;;7.10;5.75;;;;;;;;;;10279506;28;20041;-55
2021/08/23 18:33:00;;;;;;;4.80;3.50;;;;;;;;;;10279273;28;20139;-55
2021/08/23 18:37:58;;;;;;;5.40;3.78;;;;;;;;;;10279529;28;20517;-55
2021/08/23 18:42:56;;;;;;;10.18;6.30;;;;;;;;;;10277953;28;20076;-56
2021/08/23 18:47:56;;;;;;;4.82;3.85;;;;;;;;;;10284435;28;20080;-53
2021/08/23 18:52:54;;;;;;;6.45;3.92;;;;;;;;;;10283408;28;20485;-53
2021/08/23 18:57:52;;;;;;;5.63;4.10;;;;;;;;;;10290390;28;20049;-56
2021/08/23 19:02:51;;;;;;;8.52;4.35;;;;;;;;;;10278050;28;20457;-53
2021/08/23 19:07:52;;;;;;;7.03;3.28;;;;;;;;;;10277904;28;20037;-52
2021/08/23 19:12:51;;;;;;;9.20;3.58;;;;;;;;;;10280118;28;20061;-55
2021/08/23 19:17:49;;;;;;;5.82;4.63;;;;;;;;;;10282899;28;20064;-52
2021/08/23 19:22:48;;;;;;;4.47;4.00;;;;;;;;;;10289117;28;20080;-54
2021/08/23 19:27:48;;;;;;;4.63;3.47;;;;;;;;;;10276482;28;20055;-56
2021/08/23 19:32:47;;;;;;;4.32;3.50;;;;;;;;;;10287966;28;20458;-56
2021/08/23 19:37:45;;;;;;;4.22;3.60;;;;;;;;;;10278067;28;20068;-55
2021/08/23 19:42:44;;;;;;;4.80;3.80;;;;;;;;;;10276214;28;20068;-55
2021/08/23 19:47:45;;;;;;;5.95;3.80;;;;;;;;;;10289412;28;20081;-57
2021/08/23 19:52:44;;;;;;;5.20;3.50;;;;;;;;;;10293683;28;20063;-57
2021/08/23 19:57:49;;;;;;;4.05;3.65;;;;;;;;;;10286680;28;20064;-56
2021/08/23 20:02:49;;;;;;;5.43;3.42;;;;;;;;;;10276094;28;20481;-55
2021/08/23 20:07:48;;;;;;;7.80;3.90;;;;;;;;;;10275858;28;20060;-56
2021/08/23 20:12:46;;;;;;;5.82;4.82;;;;;;;;;;10275978;28;20041;-53
2021/08/23 20:17:45;;;;;;;4.93;3.55;;;;;;;;;;10275881;28;20171;-56
2021/08/23 20:22:46;;;;;;;5.10;4.20;;;;;;;;;;10275553;28;20077;-56
2021/08/23 20:27:45;;;;;;;6.82;3.83;;;;;;;;;;10283625;28;20084;-56
2021/08/23 20:32:43;;;;;;;5.20;4.20;;;;;;;;;;10283979;28;20037;-56
2021/08/23 20:37:51;;;;;;;4.70;4.07;;;;;;;;;;10283954;28;20045;-56
2021/08/23 20:42:54;;;;;;;5.35;4.57;;;;;;;;;;10283849;28;20077;-56
2021/08/23 20:47:53;;;;;;;6.35;4.40;;;;;;;;;;10283072;28;20057;-48
2021/08/23 20:52:54;;;;;;;5.68;3.88;;;;;;;;;;10283161;28;20047;-54
2021/08/23 20:57:54;;;;;;;12.25;4.20;;;;;;;;;;10283090;28;20045;-56
2021/08/23 21:02:53;;;;;;;5.50;4.57;;;;;;;;;;10283272;28;20107;-52
2021/08/23 21:07:52;;;;;;;7.15;4.13;;;;;;;;;;10282690;28;20088;-53
2021/08/23 21:12:51;;;;;;;5.35;4.20;;;;;;;;;;10281627;28;20474;-54
2021/08/23 21:17:50;;;;;;;5.60;4.30;;;;;;;;;;10284027;28;20068;-54
2021/08/23 21:22:49;;;;;;;5.35;4.40;;;;;;;;;;10301923;28;20083;-55
2021/08/23 21:27:49;;;;;;;4.72;4.22;;;;;;;;;;10282212;28;20052;-56
2021/08/23 21:32:51;;;;;;;4.75;4.30;;;;;;;;;;10294699;28;20087;-55
2021/08/23 21:37:50;;;;;;;4.05;3.60;;;;;;;;;;10309988;28;20057;-54
2021/08/23 21:42:49;;;;;;;6.13;4.30;;;;;;;;;;10281441;28;20080;-55
2021/08/23 21:47:48;;;;;;;5.00;4.20;;;;;;;;;;10280647;28;20087;-55
2021/08/23 21:52:47;;;;;;;7.07;4.80;;;;;;;;;;10280925;28;20060;-54
2021/08/23 21:57:47;;;;;;;6.63;4.35;;;;;;;;;;10281004;28;20048;-55
2021/08/23 22:02:46;;;;;;;6.57;4.93;;;;;;;;;;10280075;28;20514;-55
2021/08/23 22:07:45;;;;;;;8.30;4.53;;;;;;;;;;10280251;28;20045;-55
2021/08/23 22:12:43;;;;;;;4.97;4.20;;;;;;;;;;10280125;28;20462;-57
2021/08/23 22:17:43;;;;;;;5.97;4.82;;;;;;;;;;10279899;28;20052;-56
2021/08/23 22:22:41;;;;;;;6.03;4.43;;;;;;;;;;10279531;28;20072;-56
2021/08/23 22:27:40;;;;;;;5.13;4.72;;;;;;;;;;10279577;28;20041;-56
2021/08/23 22:32:38;;;;;;;7.03;3.80;;;;;;;;;;10279378;28;20045;-56
2021/08/23 22:37:38;;;;;;;8.43;5.22;;;;;;;;;;10278759;28;20052;-56
2021/08/23 22:42:36;;;;;;;5.95;4.55;;;;;;;;;;10279196;28;20506;-56
2021/08/23 22:47:36;;;;;;;8.55;4.45;;;;;;;;;;10278047;28;20502;-57
2021/08/23 22:52:35;;;;;;;6.00;4.00;;;;;;;;;;10278508;28;20086;-57
2021/08/23 22:57:35;;;;;;;5.68;5.13;;;;;;;;;;10278649;28;20411;-56
2021/08/23 23:02:36;;;;;;;6.75;5.00;;;;;;;;;;10278427;28;20514;-57
2021/08/23 23:07:34;;;;;;;5.43;4.75;;;;;;;;;;10278040;28;20052;-57
2021/08/23 23:12:33;;;;;;;6.95;4.68;;;;;;;;;;10277794;28;20044;-56
2021/08/23 23:17:32;;;;;;;6.30;4.93;;;;;;;;;;10277805;28;20041;-55
2021/08/23 23:22:31;;;;;;;4.75;4.25;;;;;;;;;;10277014;28;20091;-55
2021/08/23 23:27:29;;;;;;;5.43;4.18;;;;;;;;;;10277250;28;20079;-55
2021/08/23 23:32:27;;;;;;;5.32;4.40;;;;;;;;;;10277354;28;20056;-56
2021/08/23 23:37:27;;;;;;;8.63;5.20;;;;;;;;;;10277092;28;20052;-54
2021/08/23 23:42:25;;;;;;;5.10;4.60;;;;;;;;;;10276813;28;20480;-55
2021/08/23 23:47:24;;;;;;;7.72;4.38;;;;;;;;;;10275546;28;20088;-56
2021/08/23 23:52:22;;;;;;;7.85;5.15;;;;;;;;;;10276031;28;20037;-56
2021/08/23 23:57:21;;;;;;;5.20;4.13;;;;;;;;;;10276336;28;20037;-56
